createdAt,value
2022-12-04T00:02:10.684Z,28.07
2022-12-04T00:04:37.592Z,31.57
2022-12-04T00:07:06.756Z,29.23
2022-12-04T00:09:34.098Z,28.33
2022-12-04T00:12:01.925Z,29.43
2022-12-04T00:14:33.277Z,29.67
2022-12-04T00:17:00.180Z,29.37
2022-12-04T00:19:27.212Z,31.37
2022-12-04T00:21:54.242Z,31.80
2022-12-04T00:24:21.124Z,30.37
2022-12-04T00:26:48.410Z,29.20
2022-12-04T00:29:15.352Z,29.00
2022-12-04T00:31:42.277Z,29.87
2022-12-04T00:34:09.511Z,30.60
2022-12-04T00:36:36.818Z,28.80
2022-12-04T00:39:04.797Z,28.10
2022-12-04T00:41:38.444Z,28.83
2022-12-04T00:44:05.439Z,28.00
2022-12-04T00:46:32.630Z,28.23
2022-12-04T00:49:02.733Z,26.80
2022-12-04T00:51:30.370Z,29.13
2022-12-04T00:53:57.325Z,27.53
2022-12-04T00:56:27.067Z,29.00
2022-12-04T00:58:56.108Z,26.70
2022-12-04T01:01:24.118Z,28.80
2022-12-04T01:03:51.318Z,28.50
2022-12-04T01:06:35.307Z,28.43
2022-12-04T01:09:04.990Z,29.27
2022-12-04T01:11:32.867Z,28.97
2022-12-04T01:14:00.619Z,29.87
2022-12-04T01:16:31.447Z,29.17
2022-12-04T01:18:58.295Z,26.37
2022-12-04T01:21:25.267Z,28.53
2022-12-04T01:23:54.694Z,28.60
2022-12-04T01:26:21.791Z,28.20
2022-12-04T01:28:48.997Z,28.20
2022-12-04T01:31:19.175Z,31.47
2022-12-04T01:33:46.317Z,29.63
2022-12-04T01:36:18.193Z,29.70
2022-12-04T01:38:45.315Z,28.73
2022-12-04T01:41:13.802Z,28.77
2022-12-04T01:43:41.091Z,27.53
2022-12-04T01:46:09.195Z,26.17
2022-12-04T01:48:40.550Z,27.20
2022-12-04T01:51:17.768Z,27.70
2022-12-04T01:53:51.715Z,26.47
2022-12-04T01:56:22.228Z,25.27
2022-12-04T01:58:54.995Z,25.77
2022-12-04T02:01:22.305Z,27.97
2022-12-04T02:03:50.095Z,26.50
2022-12-04T02:06:16.896Z,25.77
2022-12-04T02:08:43.795Z,26.13
2022-12-04T02:11:13.971Z,27.67
2022-12-04T02:14:07.754Z,25.57
2022-12-04T02:17:08.666Z,25.47
2022-12-04T02:20:14.927Z,26.07
2022-12-04T02:22:41.594Z,25.57
2022-12-04T02:25:28.545Z,26.30
2022-12-04T02:28:23.012Z,23.97
2022-12-04T02:30:57.652Z,24.90
2022-12-04T02:33:31.713Z,26.30
2022-12-04T02:36:18.778Z,25.57
2022-12-04T02:38:50.394Z,23.33
2022-12-04T02:41:25.678Z,23.73
2022-12-04T02:44:01.830Z,23.60
2022-12-04T02:46:38.489Z,23.73
2022-12-04T02:49:13.040Z,22.00
2022-12-04T02:51:42.297Z,23.80
2022-12-04T02:54:41.311Z,22.97
2022-12-04T02:57:15.096Z,22.43
2022-12-04T02:59:44.141Z,22.70
2022-12-04T03:02:20.004Z,25.50
2022-12-04T03:04:50.673Z,22.73
2022-12-04T03:07:26.963Z,21.73
2022-12-04T03:10:03.596Z,22.13
2022-12-04T03:12:57.014Z,22.70
2022-12-04T03:15:33.091Z,22.23
2022-12-04T03:18:10.162Z,23.00
2022-12-04T03:20:38.716Z,21.87
2022-12-04T03:23:31.200Z,20.97
2022-12-04T03:26:15.266Z,21.23
2022-12-04T03:29:08.488Z,21.20
2022-12-04T03:31:45.697Z,23.70
2022-12-04T03:34:18.779Z,21.90
2022-12-04T03:36:52.649Z,23.70
2022-12-04T03:39:26.985Z,23.07
2022-12-04T03:42:02.640Z,22.90
2022-12-04T03:44:41.230Z,22.73
2022-12-04T03:47:22.338Z,21.87
2022-12-04T03:49:49.169Z,21.47
2022-12-04T03:52:15.961Z,21.83
2022-12-04T03:55:11.118Z,20.83
2022-12-04T03:57:42.452Z,21.27
2022-12-04T04:00:21.351Z,19.63
2022-12-04T04:02:57.455Z,20.80
2022-12-04T04:05:27.236Z,21.43
2022-12-04T04:08:20.715Z,19.83
2022-12-04T04:10:50.678Z,19.13
2022-12-04T04:13:40.852Z,19.83
2022-12-04T04:16:30.277Z,19.60
2022-12-04T04:19:18.570Z,20.57
2022-12-04T04:22:07.561Z,21.47
2022-12-04T04:24:45.806Z,21.47
2022-12-04T04:27:13.756Z,18.73
2022-12-04T04:29:45.528Z,18.40
2022-12-04T04:32:21.204Z,20.53
2022-12-04T04:34:54.283Z,19.97
2022-12-04T04:37:53.844Z,19.87
2022-12-04T04:40:50.491Z,19.30
2022-12-04T04:43:28.313Z,21.00
2022-12-04T04:46:08.851Z,19.53
2022-12-04T04:48:43.975Z,17.80
2022-12-04T04:51:11.729Z,20.13
2022-12-04T04:53:49.967Z,21.03
2022-12-04T04:56:17.720Z,23.20
2022-12-04T04:58:44.808Z,22.17
2022-12-04T05:01:15.185Z,19.60
2022-12-04T05:03:42.797Z,21.53
2022-12-04T05:06:10.327Z,22.57
2022-12-04T05:08:37.927Z,23.80
2022-12-04T05:11:05.267Z,18.77
2022-12-04T05:13:33.505Z,19.47
2022-12-04T05:16:03.684Z,20.70
2022-12-04T05:18:34.936Z,19.13
2022-12-04T05:21:16.809Z,20.57
2022-12-04T05:23:43.717Z,19.53
2022-12-04T05:26:10.603Z,20.93
2022-12-04T05:28:37.889Z,20.03
2022-12-04T05:31:05.029Z,21.47
2022-12-04T05:33:31.899Z,21.43
2022-12-04T05:35:59.814Z,19.80
2022-12-04T05:38:27.199Z,20.17
2022-12-04T05:40:53.966Z,20.67
2022-12-04T05:43:20.902Z,20.97
2022-12-04T05:45:47.671Z,20.97
2022-12-04T05:48:14.502Z,20.23
2022-12-04T05:50:41.437Z,20.87
2022-12-04T05:53:08.485Z,21.00
2022-12-04T05:55:35.301Z,21.03
2022-12-04T05:58:02.535Z,19.43
2022-12-04T06:00:30.208Z,20.70
2022-12-04T06:02:57.924Z,20.80
2022-12-04T06:05:24.858Z,20.63
2022-12-04T06:07:52.982Z,19.07
2022-12-04T06:10:20.022Z,18.67
2022-12-04T06:12:46.876Z,20.20
2022-12-04T06:15:13.818Z,21.50
2022-12-04T06:17:40.923Z,20.27
2022-12-04T06:20:11.668Z,18.63
2022-12-04T06:22:41.082Z,20.30
2022-12-04T06:25:08.542Z,22.77
2022-12-04T06:27:35.795Z,21.30
2022-12-04T06:30:03.051Z,21.10
2022-12-04T06:32:30.067Z,20.43
2022-12-04T06:34:57.048Z,22.37
2022-12-04T06:37:25.420Z,18.47
2022-12-04T06:39:53.370Z,21.63
2022-12-04T06:42:20.660Z,21.43
2022-12-04T06:44:47.475Z,22.67
2022-12-04T06:47:14.415Z,19.83
2022-12-04T06:49:41.562Z,21.30
2022-12-04T06:52:08.486Z,21.27
2022-12-04T06:54:35.694Z,21.37
2022-12-04T06:57:02.856Z,21.60
2022-12-04T06:59:29.836Z,23.10
2022-12-04T07:01:56.964Z,22.80
2022-12-04T07:04:24.737Z,24.47
2022-12-04T07:06:51.673Z,24.30
2022-12-04T07:09:18.853Z,22.13
2022-12-04T07:11:46.422Z,23.10
2022-12-04T07:14:13.774Z,22.93
2022-12-04T07:16:42.797Z,23.67
2022-12-04T07:19:13.830Z,23.13
2022-12-04T07:21:41.336Z,22.90
2022-12-04T07:24:08.815Z,21.70
2022-12-04T07:26:35.604Z,21.20
2022-12-04T07:29:02.351Z,24.13
2022-12-04T07:31:30.046Z,25.00
2022-12-04T07:33:57.755Z,23.77
2022-12-04T07:36:26.199Z,32.00
2022-12-04T07:38:54.822Z,31.80
2022-12-04T07:41:21.991Z,23.97
2022-12-04T07:43:48.749Z,26.27
2022-12-04T07:46:22.018Z,22.93
2022-12-04T07:48:48.842Z,24.03
2022-12-04T07:51:18.641Z,24.07
2022-12-04T07:53:46.039Z,23.13
2022-12-04T07:56:14.122Z,24.43
2022-12-04T07:58:41.610Z,24.40
2022-12-04T08:01:15.447Z,23.33
2022-12-04T08:03:47.596Z,24.00
2022-12-04T08:06:17.209Z,21.70
2022-12-04T08:08:44.294Z,23.83
2022-12-04T08:11:13.856Z,24.73
2022-12-04T08:13:40.714Z,24.23
2022-12-04T08:16:09.273Z,24.53
2022-12-04T08:18:36.197Z,21.70
2022-12-04T08:21:14.297Z,24.67
2022-12-04T08:23:42.892Z,24.77
2022-12-04T08:26:11.325Z,24.93
2022-12-04T08:28:38.510Z,25.07
2022-12-04T08:31:07.531Z,26.10
2022-12-04T08:33:35.349Z,29.10
2022-12-04T08:36:05.392Z,27.97
2022-12-04T08:38:32.358Z,27.77
2022-12-04T08:41:03.686Z,29.17
2022-12-04T08:43:31.127Z,26.93
2022-12-04T08:46:00.384Z,28.47
2022-12-04T08:48:28.001Z,27.93
2022-12-04T08:50:55.708Z,31.47
2022-12-04T08:53:23.053Z,27.83
2022-12-04T08:55:50.755Z,28.17
2022-12-04T08:58:18.059Z,25.77
2022-12-04T09:00:44.935Z,27.37
2022-12-04T09:03:24.872Z,26.80
2022-12-04T09:05:59.962Z,26.03
2022-12-04T09:08:26.685Z,26.50
2022-12-04T09:10:53.560Z,26.60
2022-12-04T09:13:20.325Z,25.43
2022-12-04T09:15:47.143Z,29.40
2022-12-04T09:18:13.998Z,25.30
2022-12-04T09:20:40.757Z,28.83
2022-12-04T09:23:07.497Z,27.30
2022-12-04T09:25:38.102Z,28.67
2022-12-04T09:28:05.055Z,27.37
2022-12-04T09:30:32.003Z,27.33
2022-12-04T09:32:58.781Z,27.17
2022-12-04T09:35:25.663Z,23.73
2022-12-04T09:37:52.767Z,25.60
2022-12-04T09:40:38.173Z,23.87
2022-12-04T09:43:16.313Z,25.00
2022-12-04T09:45:48.926Z,24.17
2022-12-04T09:48:18.221Z,24.33
2022-12-04T09:50:47.053Z,24.47
2022-12-04T09:53:32.996Z,25.60
2022-12-04T09:56:04.565Z,23.40
2022-12-04T09:58:49.642Z,23.10
2022-12-04T10:01:49.414Z,22.47
2022-12-04T10:04:17.305Z,23.70
2022-12-04T10:07:13.789Z,24.40
2022-12-04T10:10:06.536Z,24.10
2022-12-04T10:12:58.381Z,24.80
2022-12-04T10:15:30.429Z,26.30
2022-12-04T10:18:25.491Z,25.23
2022-12-04T10:21:12.900Z,20.90
2022-12-04T10:23:48.230Z,23.63
2022-12-04T10:26:18.374Z,23.43
2022-12-04T10:28:55.624Z,23.57
2022-12-04T10:31:24.680Z,22.37
2022-12-04T10:34:15.545Z,22.93
2022-12-04T10:36:45.560Z,24.83
2022-12-04T10:39:24.810Z,21.10
2022-12-04T10:42:21.624Z,19.53
2022-12-04T10:44:48.689Z,20.93
2022-12-04T10:47:15.655Z,22.40
2022-12-04T10:49:43.643Z,21.40
2022-12-04T10:52:13.818Z,21.77
2022-12-04T10:54:51.343Z,22.20
2022-12-04T10:57:18.232Z,19.17
2022-12-04T10:59:52.638Z,22.03
2022-12-04T11:02:27.142Z,20.93
2022-12-04T11:05:02.762Z,22.80
2022-12-04T11:07:34.608Z,23.10
2022-12-04T11:10:38.915Z,23.47
2022-12-04T11:13:17.776Z,22.10
2022-12-04T11:15:50.455Z,22.50
2022-12-04T11:18:21.244Z,21.60
2022-12-04T11:21:00.653Z,21.67
2022-12-04T11:23:32.387Z,22.90
2022-12-04T11:26:05.628Z,22.60
2022-12-04T11:28:42.798Z,22.23
2022-12-04T11:31:16.422Z,22.07
2022-12-04T11:33:47.751Z,22.17
2022-12-04T11:36:34.937Z,21.23
2022-12-04T11:39:38.602Z,20.97
2022-12-04T11:42:17.001Z,21.93
2022-12-04T11:44:56.191Z,21.00
2022-12-04T11:47:28.197Z,20.70
2022-12-04T11:50:13.803Z,19.60
2022-12-04T11:52:53.633Z,21.60
2022-12-04T11:55:37.839Z,20.70
2022-12-04T11:58:24.150Z,19.97
2022-12-04T12:01:18.934Z,20.03
2022-12-04T12:04:43.107Z,26.33
2022-12-04T12:07:21.377Z,20.80
2022-12-04T12:10:00.395Z,24.50
2022-12-04T12:12:45.654Z,22.40
2022-12-04T12:15:36.477Z,24.33
2022-12-04T12:18:46.989Z,21.30
2022-12-04T12:21:25.097Z,22.80
2022-12-04T12:24:25.774Z,23.53
2022-12-04T12:27:07.352Z,23.50
2022-12-04T12:29:55.695Z,21.73
2022-12-04T12:32:58.233Z,20.43
2022-12-04T12:35:41.556Z,19.27
2022-12-04T12:38:29.884Z,19.07
2022-12-04T12:41:05.193Z,18.23
2022-12-04T12:43:38.308Z,20.30
2022-12-04T12:46:12.441Z,18.87
2022-12-04T12:48:45.982Z,19.20
2022-12-04T12:51:31.716Z,19.07
2022-12-04T12:54:35.484Z,18.60
2022-12-04T12:57:31.103Z,18.30
2022-12-04T13:00:05.044Z,19.27
2022-12-04T13:02:57.222Z,20.33
2022-12-04T13:05:39.556Z,18.43
2022-12-04T13:08:10.052Z,16.30
2022-12-04T13:10:44.230Z,16.73
2022-12-04T13:13:18.862Z,19.17
2022-12-04T13:15:57.320Z,18.97
2022-12-04T13:18:49.799Z,16.27
2022-12-04T13:21:31.733Z,21.80
2022-12-04T13:24:13.508Z,19.33
2022-12-04T13:26:43.652Z,17.47
2022-12-04T13:29:37.273Z,19.00
2022-12-04T13:32:46.738Z,17.90
2022-12-04T13:35:20.028Z,16.77
2022-12-04T13:38:00.604Z,17.93
2022-12-04T13:40:48.074Z,17.63
2022-12-04T13:43:41.873Z,17.07
2022-12-04T13:46:34.244Z,17.13
2022-12-04T13:49:28.128Z,18.37
2022-12-04T13:51:56.567Z,18.13
2022-12-04T13:54:31.688Z,17.23
2022-12-04T13:57:16.570Z,16.40
2022-12-04T13:59:44.629Z,16.97
2022-12-04T14:02:26.361Z,16.37
2022-12-04T14:05:06.985Z,17.23
2022-12-04T14:07:39.823Z,17.47
2022-12-04T14:10:09.311Z,18.07
2022-12-04T14:12:39.947Z,17.30
2022-12-04T14:15:28.177Z,17.40
2022-12-04T14:18:26.547Z,16.37
2022-12-04T14:21:02.179Z,16.23
2022-12-04T14:23:38.341Z,16.20
2022-12-04T14:26:05.741Z,15.97
2022-12-04T14:28:37.282Z,16.43
2022-12-04T14:31:39.168Z,16.87
2022-12-04T14:34:29.793Z,17.27
2022-12-04T14:36:58.151Z,17.03
2022-12-04T14:39:27.316Z,17.17
2022-12-04T14:42:27.025Z,17.10
2022-12-04T14:44:57.119Z,17.23
2022-12-04T14:47:40.955Z,18.67
2022-12-04T14:50:13.839Z,20.67
2022-12-04T14:52:53.184Z,22.23
2022-12-04T14:55:35.791Z,18.83
2022-12-04T14:58:34.712Z,23.13
2022-12-04T15:01:26.886Z,22.07
2022-12-04T15:03:59.209Z,21.53
2022-12-04T15:06:31.727Z,21.67
2022-12-04T15:09:23.073Z,25.13
2022-12-04T15:12:12.409Z,17.97
2022-12-04T15:14:47.349Z,16.70
2022-12-04T15:17:16.276Z,16.47
2022-12-04T15:19:43.443Z,17.50
2022-12-04T15:22:27.493Z,17.10
2022-12-04T15:24:55.483Z,17.07
2022-12-04T15:27:31.683Z,17.20
2022-12-04T15:30:01.381Z,16.10
2022-12-04T15:32:30.366Z,17.13
2022-12-04T15:35:04.760Z,16.67
2022-12-04T15:37:32.674Z,12.80
2022-12-04T15:40:00.117Z,17.43
2022-12-04T15:42:29.207Z,17.87
2022-12-04T15:45:01.725Z,19.90
2022-12-04T15:47:53.832Z,14.87
2022-12-04T15:50:24.149Z,15.87
2022-12-04T15:53:05.816Z,16.60
2022-12-04T15:55:50.836Z,17.87
2022-12-04T15:58:27.000Z,26.13
2022-12-04T16:01:06.346Z,16.27
2022-12-04T16:03:48.624Z,20.17
2022-12-04T16:06:19.345Z,24.03
2022-12-04T16:08:54.593Z,16.97
2022-12-04T16:11:21.647Z,16.80
2022-12-04T16:14:08.654Z,18.00
2022-12-04T16:16:36.984Z,19.53
2022-12-04T16:19:26.705Z,21.60
2022-12-04T16:21:53.621Z,17.77
2022-12-04T16:24:20.726Z,18.93
2022-12-04T16:26:50.793Z,18.47
2022-12-04T16:29:17.779Z,17.43
2022-12-04T16:31:44.817Z,18.30
2022-12-04T16:34:13.385Z,17.33
2022-12-04T16:36:40.743Z,19.50
2022-12-04T16:39:07.620Z,18.33
2022-12-04T16:41:34.522Z,20.77
2022-12-04T16:44:02.016Z,17.77
2022-12-04T16:46:29.877Z,16.43
2022-12-04T16:48:56.813Z,16.27
2022-12-04T16:51:25.964Z,17.20
2022-12-04T16:53:53.914Z,16.90
2022-12-04T16:56:21.746Z,18.13
2022-12-04T16:58:49.039Z,18.93
2022-12-04T17:01:24.402Z,19.93
2022-12-04T17:03:51.391Z,17.47
2022-12-04T17:06:18.793Z,18.10
2022-12-04T17:08:46.063Z,19.87
2022-12-04T17:11:14.372Z,21.47
2022-12-04T17:13:42.004Z,20.97
2022-12-04T17:16:09.309Z,20.43
2022-12-04T17:18:36.545Z,19.33
2022-12-04T17:21:08.699Z,20.53
2022-12-04T17:23:35.608Z,20.03
2022-12-04T17:26:07.750Z,18.00
2022-12-04T17:28:36.419Z,18.43
2022-12-04T17:31:06.231Z,18.70
2022-12-04T17:33:33.848Z,18.10
2022-12-04T17:36:00.981Z,20.43
2022-12-04T17:38:28.067Z,18.33
2022-12-04T17:41:02.239Z,19.43
2022-12-04T17:43:30.312Z,19.80
2022-12-04T17:45:57.842Z,19.30
2022-12-04T17:48:25.957Z,20.20
2022-12-04T17:51:10.485Z,22.53
2022-12-04T17:53:37.997Z,18.73
2022-12-04T17:56:08.329Z,20.23
2022-12-04T17:58:36.155Z,17.30
2022-12-04T18:01:06.102Z,19.87
2022-12-04T18:03:33.640Z,20.17
2022-12-04T18:06:01.468Z,20.17
2022-12-04T18:08:29.597Z,18.80
2022-12-04T18:10:57.257Z,17.67
2022-12-04T18:13:24.101Z,18.13
2022-12-04T18:15:51.010Z,17.40
2022-12-04T18:18:17.869Z,17.47
2022-12-04T18:20:44.700Z,18.10
2022-12-04T18:23:11.476Z,18.83
2022-12-04T18:25:38.376Z,18.73
2022-12-04T18:28:05.261Z,17.03
2022-12-04T18:30:34.200Z,19.33
2022-12-04T18:33:00.915Z,18.57
2022-12-04T18:35:27.634Z,18.73
2022-12-04T18:37:54.755Z,19.30
2022-12-04T18:40:21.568Z,16.80
2022-12-04T18:42:48.683Z,18.10
2022-12-04T18:45:15.578Z,16.40
2022-12-04T18:47:42.375Z,21.17
2022-12-04T18:50:09.560Z,18.60
2022-12-04T18:52:37.442Z,16.70
2022-12-04T18:55:05.017Z,15.80
2022-12-04T18:57:31.989Z,15.60
2022-12-04T18:59:59.399Z,16.07
2022-12-04T19:02:26.829Z,18.57
2022-12-04T19:04:53.767Z,17.80
2022-12-04T19:07:20.634Z,16.70
2022-12-04T19:10:10.344Z,16.27
2022-12-04T19:12:34.536Z,15.73
2022-12-04T19:15:01.342Z,16.27
2022-12-04T19:17:28.466Z,16.80
2022-12-04T19:19:55.837Z,19.23
2022-12-04T19:22:22.985Z,16.50
2022-12-04T19:24:49.789Z,21.23
2022-12-04T19:27:16.624Z,17.50
2022-12-04T19:29:43.758Z,18.33
2022-12-04T19:32:11.210Z,18.20
2022-12-04T19:34:38.156Z,17.23
2022-12-04T19:37:05.376Z,16.97
2022-12-04T19:39:32.615Z,15.47
2022-12-04T19:41:59.370Z,16.80
2022-12-04T19:44:47.926Z,16.87
2022-12-04T19:47:12.968Z,19.30
2022-12-04T19:49:39.733Z,17.03
2022-12-04T19:52:06.753Z,17.63
2022-12-04T19:54:33.639Z,18.80
2022-12-04T19:57:01.244Z,16.97
2022-12-04T19:59:31.765Z,17.53
2022-12-04T20:02:04.068Z,16.27
2022-12-04T20:04:32.357Z,16.33
2022-12-04T20:06:59.189Z,17.30
2022-12-04T20:09:27.440Z,17.00
2022-12-04T20:11:54.363Z,18.77
2022-12-04T20:14:21.310Z,18.57
2022-12-04T20:16:48.635Z,20.00
2022-12-04T20:19:16.998Z,21.90
2022-12-04T20:21:44.869Z,22.50
2022-12-04T20:24:14.639Z,24.63
2022-12-04T20:26:43.019Z,26.10
2022-12-04T20:29:13.320Z,28.17
2022-12-04T20:31:42.779Z,26.83
2022-12-04T20:34:13.858Z,27.87
2022-12-04T20:36:43.087Z,26.50
2022-12-04T20:39:12.717Z,25.80
2022-12-04T20:41:40.044Z,25.80
2022-12-04T20:44:08.607Z,24.80
2022-12-04T20:46:38.399Z,27.13
2022-12-04T20:49:08.882Z,26.43
2022-12-04T20:51:39.036Z,25.23
2022-12-04T20:54:06.721Z,25.23
2022-12-04T20:56:36.777Z,26.17
2022-12-04T20:59:07.923Z,27.03
2022-12-04T21:01:36.587Z,27.57
2022-12-04T21:04:04.801Z,24.73
2022-12-04T21:06:36.023Z,26.73
2022-12-04T21:09:17.360Z,27.07
2022-12-04T21:11:47.849Z,27.17
2022-12-04T21:14:39.487Z,27.33
2022-12-04T21:17:09.589Z,25.53
2022-12-04T21:19:36.904Z,25.63
2022-12-04T21:22:03.659Z,27.13
2022-12-04T21:24:36.258Z,23.67
2022-12-04T21:27:03.219Z,25.07
2022-12-04T21:29:30.424Z,24.93
2022-12-04T21:31:57.430Z,25.33
2022-12-04T21:34:24.678Z,24.20
2022-12-04T21:36:51.718Z,23.60
2022-12-04T21:39:18.499Z,24.53
2022-12-04T21:42:04.042Z,26.37
2022-12-04T21:44:31.056Z,23.23
2022-12-04T21:46:58.257Z,25.07
2022-12-04T21:49:25.440Z,24.77
2022-12-04T21:51:57.774Z,25.67
2022-12-04T21:54:26.796Z,27.03
2022-12-04T21:56:54.201Z,23.80
2022-12-04T21:59:24.362Z,23.07
2022-12-04T22:01:51.573Z,24.07
2022-12-04T22:04:18.764Z,24.27
2022-12-04T22:06:47.923Z,24.70
2022-12-04T22:09:16.239Z,24.07
2022-12-04T22:11:44.824Z,24.33
2022-12-04T22:14:12.499Z,26.10
2022-12-04T22:16:43.465Z,24.80
2022-12-04T22:19:12.736Z,24.67
2022-12-04T22:21:40.921Z,24.50
2022-12-04T22:24:08.685Z,24.20
2022-12-04T22:26:37.778Z,20.03
2022-12-04T22:29:27.007Z,19.97
2022-12-04T22:31:52.776Z,20.87
2022-12-04T22:34:20.772Z,20.87
2022-12-04T22:36:49.364Z,21.23
2022-12-04T22:39:16.287Z,22.33
2022-12-04T22:41:43.274Z,22.23
2022-12-04T22:44:11.261Z,21.37
2022-12-04T22:46:39.355Z,21.80
2022-12-04T22:49:08.475Z,19.70
2022-12-04T22:51:36.483Z,17.60
2022-12-04T22:54:07.948Z,20.90
2022-12-04T22:56:34.976Z,19.73
2022-12-04T22:59:01.773Z,18.80
2022-12-04T23:01:31.385Z,21.23
2022-12-04T23:03:59.158Z,20.33
2022-12-04T23:06:29.429Z,19.73
2022-12-04T23:09:03.627Z,19.57
2022-12-04T23:11:31.022Z,18.63
2022-12-04T23:14:05.883Z,17.67
2022-12-04T23:16:35.866Z,17.37
2022-12-04T23:19:04.018Z,18.23
2022-12-04T23:21:30.951Z,15.77
2022-12-04T23:23:58.021Z,16.87
2022-12-04T23:26:31.735Z,17.37
2022-12-04T23:28:59.462Z,18.10
2022-12-04T23:31:26.486Z,18.03
2022-12-04T23:33:53.454Z,17.50
2022-12-04T23:36:21.959Z,17.17
2022-12-04T23:38:50.289Z,18.00
2022-12-04T23:41:21.184Z,17.23
2022-12-04T23:43:49.793Z,18.30
2022-12-04T23:46:19.785Z,16.10
2022-12-04T23:48:47.255Z,18.43
2022-12-04T23:51:16.536Z,18.00
2022-12-04T23:53:44.116Z,17.50
2022-12-04T23:56:12.767Z,19.10
2022-12-04T23:58:40.366Z,17.97
